createdAt,value
2023-03-26T00:00:44.245Z,11.85
2023-03-26T00:03:16.429Z,11.73
2023-03-26T00:05:45.583Z,9.33
2023-03-26T00:08:12.528Z,7.80
2023-03-26T00:10:41.447Z,9.07
2023-03-26T00:13:08.542Z,9.80
2023-03-26T00:15:36.128Z,12.38
2023-03-26T00:18:03.470Z,11.57
2023-03-26T00:20:32.795Z,10.00
2023-03-26T00:23:01.730Z,11.95
2023-03-26T00:25:28.468Z,17.02
2023-03-26T00:27:54.883Z,13.52
2023-03-26T00:30:21.400Z,8.60
2023-03-26T00:32:53.379Z,11.95
2023-03-26T00:35:20.764Z,8.35
2023-03-26T00:37:47.212Z,7.43
2023-03-26T00:40:13.885Z,8.35
2023-03-26T00:42:40.325Z,11.70
2023-03-26T00:45:07.449Z,6.38
2023-03-26T00:47:34.484Z,8.50
2023-03-26T00:50:01.468Z,11.40
2023-03-26T00:52:28.708Z,10.27
2023-03-26T00:54:55.964Z,8.83
2023-03-26T00:57:34.629Z,4.13
2023-03-26T01:00:15.871Z,7.40
2023-03-26T01:02:45.074Z,5.10
2023-03-26T01:05:36.659Z,8.00
2023-03-26T01:08:15.098Z,10.50
2023-03-26T01:10:43.346Z,8.63
2023-03-26T01:13:10.350Z,10.45
2023-03-26T01:15:37.411Z,8.32
2023-03-26T01:18:09.856Z,7.68
2023-03-26T01:20:46.804Z,10.37
2023-03-26T01:23:19.928Z,12.65
2023-03-26T01:25:55.944Z,7.97
2023-03-26T01:28:26.454Z,7.72
2023-03-26T01:31:09.956Z,7.45
2023-03-26T01:33:46.044Z,12.57
2023-03-26T01:36:25.921Z,11.48
2023-03-26T01:39:04.970Z,8.85
2023-03-26T01:41:43.344Z,11.95
2023-03-26T01:44:15.276Z,10.68
2023-03-26T01:46:42.190Z,18.17
2023-03-26T01:49:13.029Z,12.18
2023-03-26T01:51:41.946Z,9.40
2023-03-26T01:54:13.569Z,6.15
2023-03-26T01:57:01.626Z,13.30
2023-03-26T01:59:40.582Z,8.47
2023-03-26T02:02:14.857Z,10.27
2023-03-26T02:05:04.659Z,11.27
2023-03-26T02:07:59.307Z,12.95
2023-03-26T02:10:44.074Z,9.18
2023-03-26T02:13:12.547Z,11.07
2023-03-26T02:15:55.700Z,6.88
2023-03-26T02:18:24.299Z,10.10
2023-03-26T02:20:53.207Z,11.75
2023-03-26T02:23:20.966Z,12.88
2023-03-26T02:25:48.011Z,13.67
2023-03-26T02:28:14.499Z,15.88
2023-03-26T02:30:40.910Z,12.55
2023-03-26T02:33:07.433Z,10.10
2023-03-26T02:35:33.931Z,16.08
2023-03-26T02:38:00.569Z,13.77
2023-03-26T02:40:27.067Z,17.27
2023-03-26T02:42:53.608Z,16.73
2023-03-26T02:45:20.316Z,13.80
2023-03-26T02:47:46.791Z,15.75
2023-03-26T02:50:13.478Z,9.97
2023-03-26T02:52:40.088Z,12.55
2023-03-26T02:55:07.424Z,7.80
2023-03-26T02:57:34.026Z,8.50
2023-03-26T03:00:02.359Z,9.93
2023-03-26T03:02:29.425Z,13.03
2023-03-26T03:05:01.312Z,11.15
2023-03-26T03:07:28.851Z,12.90
2023-03-26T03:09:55.234Z,12.13
2023-03-26T03:12:21.657Z,15.20
2023-03-26T03:14:48.164Z,13.80
2023-03-26T03:17:14.715Z,17.73
2023-03-26T03:19:41.138Z,25.00
2023-03-26T03:22:07.534Z,25.95
2023-03-26T03:24:34.063Z,20.55
2023-03-26T03:27:00.629Z,23.80
2023-03-26T03:29:27.100Z,31.00
2023-03-26T03:31:53.737Z,28.67
2023-03-26T03:34:21.621Z,28.13
2023-03-26T03:36:48.613Z,27.77
2023-03-26T03:39:15.881Z,19.87
2023-03-26T03:41:42.382Z,21.70
2023-03-26T03:44:08.995Z,33.33
2023-03-26T03:46:35.924Z,29.10
2023-03-26T03:49:03.397Z,24.52
2023-03-26T03:51:29.801Z,28.50
2023-03-26T03:53:56.633Z,22.20
2023-03-26T03:56:24.120Z,28.73
2023-03-26T03:58:50.619Z,27.83
2023-03-26T04:01:17.217Z,32.78
2023-03-26T04:03:46.957Z,31.07
2023-03-26T04:06:13.786Z,23.45
2023-03-26T04:08:40.472Z,28.83
2023-03-26T04:11:06.965Z,22.80
2023-03-26T04:13:33.333Z,24.80
2023-03-26T04:16:00.462Z,31.07
2023-03-26T04:18:27.808Z,26.65
2023-03-26T04:20:55.525Z,30.80
2023-03-26T04:23:22.538Z,29.67
2023-03-26T04:25:53.437Z,29.52
2023-03-26T04:28:35.493Z,19.63
2023-03-26T04:31:06.366Z,24.55
2023-03-26T04:33:34.745Z,22.30
2023-03-26T04:36:02.921Z,24.73
2023-03-26T04:38:34.107Z,23.65
2023-03-26T04:41:04.017Z,22.67
2023-03-26T04:43:31.182Z,34.58
2023-03-26T04:45:57.696Z,20.10
2023-03-26T04:48:24.137Z,18.20
2023-03-26T04:50:50.687Z,24.17
2023-03-26T04:53:21.117Z,30.47
2023-03-26T04:55:57.333Z,30.92
2023-03-26T04:58:30.089Z,30.08
2023-03-26T05:00:57.277Z,30.48
2023-03-26T05:03:23.746Z,23.67
2023-03-26T05:05:50.417Z,31.17
2023-03-26T05:08:16.789Z,30.52
2023-03-26T05:10:43.160Z,26.13
2023-03-26T05:13:09.651Z,34.55
2023-03-26T05:15:36.008Z,23.48
2023-03-26T05:18:02.478Z,32.80
2023-03-26T05:20:31.153Z,24.33
2023-03-26T05:22:57.662Z,26.83
2023-03-26T05:25:24.106Z,25.90
2023-03-26T05:27:50.628Z,29.20
2023-03-26T05:30:19.834Z,29.33
2023-03-26T05:32:48.825Z,25.35
2023-03-26T05:35:19.397Z,24.73
2023-03-26T05:37:47.381Z,24.17
2023-03-26T05:40:16.712Z,23.25
2023-03-26T05:42:43.593Z,30.37
2023-03-26T05:45:12.511Z,25.70
2023-03-26T05:47:39.312Z,23.60
2023-03-26T05:50:06.774Z,23.98
2023-03-26T05:52:33.391Z,31.30
2023-03-26T05:54:59.888Z,26.77
2023-03-26T05:57:29.429Z,24.48
2023-03-26T05:59:56.339Z,30.90
2023-03-26T06:02:23.690Z,22.70
2023-03-26T06:04:50.950Z,34.13
2023-03-26T06:07:18.109Z,30.00
2023-03-26T06:09:45.116Z,18.80
2023-03-26T06:12:12.485Z,25.27
2023-03-26T06:14:38.978Z,20.88
2023-03-26T06:17:05.425Z,24.77
2023-03-26T06:19:31.861Z,32.53
2023-03-26T06:21:58.250Z,25.23
2023-03-26T06:24:24.660Z,35.45
2023-03-26T06:26:52.211Z,26.58
2023-03-26T06:29:18.665Z,25.15
2023-03-26T06:31:45.204Z,21.43
2023-03-26T06:34:11.667Z,26.45
2023-03-26T06:36:38.147Z,24.00
2023-03-26T06:39:07.775Z,22.00
2023-03-26T06:41:35.493Z,19.70
2023-03-26T06:44:01.911Z,21.43
2023-03-26T06:46:28.735Z,16.30
2023-03-26T06:48:55.298Z,16.20
2023-03-26T06:51:21.676Z,28.27
2023-03-26T06:53:48.046Z,21.45
2023-03-26T06:56:14.528Z,29.57
2023-03-26T06:58:41.254Z,26.05
2023-03-26T07:01:07.811Z,19.88
2023-03-26T07:03:34.339Z,19.98
2023-03-26T07:06:00.779Z,21.55
2023-03-26T07:08:27.424Z,16.70
2023-03-26T07:10:54.087Z,19.65
2023-03-26T07:13:20.748Z,15.73
2023-03-26T07:15:48.864Z,26.83
2023-03-26T07:18:15.327Z,22.95
2023-03-26T07:20:42.366Z,22.17
2023-03-26T07:23:11.534Z,24.98
2023-03-26T07:25:38.376Z,25.50
2023-03-26T07:28:24.967Z,19.38
2023-03-26T07:31:10.839Z,23.38
2023-03-26T07:33:40.367Z,27.50
2023-03-26T07:36:33.036Z,23.30
2023-03-26T07:39:18.734Z,20.80
2023-03-26T07:42:01.560Z,21.67
2023-03-26T07:44:50.214Z,23.55
2023-03-26T07:47:33.563Z,36.97
2023-03-26T07:50:00.300Z,24.65
2023-03-26T07:52:28.404Z,35.58
2023-03-26T07:54:55.650Z,29.27
2023-03-26T07:57:47.488Z,31.80
2023-03-26T08:00:25.128Z,20.00
2023-03-26T08:03:22.010Z,26.20
2023-03-26T08:06:08.799Z,31.00
2023-03-26T08:08:45.781Z,29.65
2023-03-26T08:11:24.733Z,26.35
2023-03-26T08:14:03.166Z,31.30
2023-03-26T08:16:39.845Z,28.08
2023-03-26T08:19:12.779Z,28.17
2023-03-26T08:21:48.244Z,25.83
2023-03-26T08:24:37.027Z,25.30
2023-03-26T08:27:18.693Z,23.87
2023-03-26T08:30:17.165Z,22.67
2023-03-26T08:32:52.844Z,26.05
2023-03-26T08:35:19.266Z,21.17
2023-03-26T08:37:45.659Z,22.48
2023-03-26T08:40:13.626Z,23.40
2023-03-26T08:43:04.474Z,25.17
2023-03-26T08:45:51.375Z,25.55
2023-03-26T08:48:34.694Z,28.73
2023-03-26T08:51:28.619Z,24.17
2023-03-26T08:54:13.551Z,22.73
2023-03-26T08:57:17.397Z,21.00
2023-03-26T08:59:53.453Z,20.75
2023-03-26T09:03:15.245Z,24.48
2023-03-26T09:05:47.401Z,25.92
2023-03-26T09:08:53.737Z,23.33
2023-03-26T09:11:36.160Z,25.70
2023-03-26T09:14:22.821Z,25.67
2023-03-26T09:16:58.390Z,23.15
2023-03-26T09:19:52.797Z,29.65
2023-03-26T09:22:41.545Z,24.33
2023-03-26T09:25:14.101Z,26.38
2023-03-26T09:27:53.996Z,25.75
2023-03-26T09:30:57.893Z,21.65
2023-03-26T09:33:59.252Z,27.75
2023-03-26T09:36:48.486Z,17.30
2023-03-26T09:39:27.391Z,17.17
2023-03-26T09:42:09.796Z,22.85
2023-03-26T09:44:41.838Z,26.35
2023-03-26T09:47:32.259Z,24.55
2023-03-26T09:50:29.198Z,22.97
2023-03-26T09:53:21.550Z,16.42
2023-03-26T09:55:56.663Z,17.55
2023-03-26T09:58:33.086Z,20.58
2023-03-26T10:01:05.700Z,25.75
2023-03-26T10:03:59.909Z,27.53
2023-03-26T10:06:33.550Z,17.33
2023-03-26T10:09:37.496Z,17.00
2023-03-26T10:12:24.396Z,20.00
2023-03-26T10:14:59.516Z,15.65
2023-03-26T10:17:43.071Z,14.90
2023-03-26T10:20:37.814Z,13.40
2023-03-26T10:23:47.052Z,16.75
2023-03-26T10:26:34.490Z,15.48
2023-03-26T10:29:18.942Z,12.77
2023-03-26T10:32:19.893Z,16.00
2023-03-26T10:35:04.068Z,13.82
2023-03-26T10:38:03.750Z,11.23
2023-03-26T10:41:04.557Z,6.45
2023-03-26T10:43:42.557Z,7.00
2023-03-26T10:46:21.490Z,10.83
2023-03-26T10:49:09.967Z,9.35
2023-03-26T10:51:51.316Z,8.25
2023-03-26T10:55:08.967Z,8.38
2023-03-26T10:57:44.573Z,7.50
2023-03-26T11:00:16.526Z,10.90
2023-03-26T11:03:01.367Z,9.48
2023-03-26T11:05:46.432Z,10.50
2023-03-26T11:08:31.092Z,12.27
2023-03-26T11:11:14.393Z,5.97
2023-03-26T11:13:53.632Z,11.23
2023-03-26T11:16:44.847Z,14.10
2023-03-26T11:19:38.796Z,12.57
2023-03-26T11:22:30.120Z,10.40
2023-03-26T11:25:05.624Z,12.38
2023-03-26T11:27:38.267Z,11.83
2023-03-26T11:30:26.375Z,8.43
2023-03-26T11:33:01.582Z,12.10
2023-03-26T11:35:40.514Z,11.88
2023-03-26T11:38:26.458Z,11.10
2023-03-26T11:40:56.011Z,9.20
2023-03-26T11:43:30.045Z,13.20
2023-03-26T11:45:56.618Z,10.32
2023-03-26T11:48:27.904Z,7.22
2023-03-26T11:51:04.365Z,11.23
2023-03-26T11:53:34.714Z,9.87
2023-03-26T11:56:08.061Z,13.13
2023-03-26T11:58:37.455Z,13.10
2023-03-26T12:01:13.372Z,6.97
2023-03-26T12:03:40.490Z,9.57
2023-03-26T12:06:25.552Z,7.33
2023-03-26T12:08:53.676Z,10.70
2023-03-26T12:11:27.360Z,8.52
2023-03-26T12:14:03.987Z,12.68
2023-03-26T12:16:30.937Z,11.18
2023-03-26T12:19:22.532Z,12.70
2023-03-26T12:21:51.729Z,9.38
2023-03-26T12:24:31.091Z,9.60
2023-03-26T12:27:20.566Z,12.95
2023-03-26T12:30:12.500Z,10.57
2023-03-26T12:32:46.123Z,9.13
2023-03-26T12:35:27.334Z,9.35
2023-03-26T12:37:55.378Z,14.13
2023-03-26T12:40:35.947Z,11.32
2023-03-26T12:44:52.751Z,10.20
2023-03-26T12:47:54.002Z,7.60
2023-03-26T12:48:41.549Z,4.43
2023-03-26T12:51:21.603Z,8.75
2023-03-26T12:54:25.939Z,4.47
2023-03-26T12:57:21.448Z,7.80
2023-03-26T13:00:23.438Z,9.30
2023-03-26T13:03:44.929Z,6.82
2023-03-26T13:07:00.144Z,5.57
2023-03-26T13:09:37.669Z,10.93
2023-03-26T13:12:14.421Z,5.00
2023-03-26T13:15:09.071Z,10.20
2023-03-26T13:17:48.140Z,6.78
2023-03-26T13:20:33.158Z,5.68
2023-03-26T13:23:22.806Z,7.95
2023-03-26T13:26:11.497Z,7.05
2023-03-26T13:28:50.268Z,7.13
2023-03-26T13:31:35.330Z,9.73
2023-03-26T13:34:23.585Z,8.00
2023-03-26T13:37:07.305Z,7.88
2023-03-26T13:40:05.031Z,7.35
2023-03-26T13:42:47.688Z,13.53
2023-03-26T13:45:27.571Z,11.77
2023-03-26T13:47:57.052Z,6.22
2023-03-26T13:50:26.461Z,5.60
2023-03-26T13:53:10.822Z,6.50
2023-03-26T13:55:42.651Z,6.17
2023-03-26T13:58:34.663Z,8.10
2023-03-26T14:01:12.648Z,5.85
2023-03-26T14:04:19.187Z,5.78
2023-03-26T14:07:07.303Z,7.85
2023-03-26T14:09:46.542Z,3.90
2023-03-26T14:12:37.930Z,12.23
2023-03-26T14:15:16.372Z,4.10
2023-03-26T14:17:50.560Z,5.03
2023-03-26T14:20:48.955Z,6.75
2023-03-26T14:23:41.167Z,8.73
2023-03-26T14:26:16.513Z,5.10
2023-03-26T14:28:57.447Z,4.85
2023-03-26T14:32:01.008Z,4.53
2023-03-26T14:34:46.872Z,6.88
2023-03-26T14:37:34.824Z,7.37
2023-03-26T14:40:16.613Z,4.72
2023-03-26T14:42:56.595Z,3.80
2023-03-26T14:45:45.855Z,7.78
2023-03-26T14:48:41.019Z,8.38
2023-03-26T14:51:30.935Z,5.23
2023-03-26T14:54:06.775Z,5.45
2023-03-26T14:57:16.025Z,3.85
2023-03-26T15:00:19.989Z,10.77
2023-03-26T15:03:21.514Z,5.15
2023-03-26T15:06:15.910Z,7.70
2023-03-26T15:09:18.721Z,3.22
2023-03-26T15:12:12.606Z,5.10
2023-03-26T15:15:04.282Z,16.65
2023-03-26T15:17:44.763Z,6.35
2023-03-26T15:20:48.567Z,7.77
2023-03-26T15:23:26.020Z,10.02
2023-03-26T15:26:04.214Z,7.22
2023-03-26T15:28:52.398Z,6.03
2023-03-26T15:32:30.188Z,2.72
2023-03-26T15:35:17.449Z,5.43
2023-03-26T15:37:58.625Z,10.88
2023-03-26T15:40:29.169Z,2.90
2023-03-26T15:43:01.472Z,3.10
2023-03-26T15:45:27.914Z,6.05
2023-03-26T15:48:01.330Z,10.87
2023-03-26T15:50:45.714Z,9.48
2023-03-26T15:53:33.903Z,7.57
2023-03-26T15:56:12.850Z,6.47
2023-03-26T15:58:52.010Z,5.03
2023-03-26T16:01:34.046Z,9.40
2023-03-26T16:04:12.555Z,11.30
2023-03-26T16:06:59.364Z,4.85
2023-03-26T16:09:50.772Z,5.78
2023-03-26T16:12:17.223Z,6.28
2023-03-26T16:14:46.059Z,5.90
2023-03-26T16:17:23.364Z,8.77
2023-03-26T16:19:59.250Z,9.32
2023-03-26T16:22:54.852Z,10.30
2023-03-26T16:25:29.230Z,5.65
2023-03-26T16:28:10.156Z,3.70
2023-03-26T16:30:37.053Z,9.23
2023-03-26T16:33:15.346Z,5.40
2023-03-26T16:36:03.000Z,5.85
2023-03-26T16:38:51.812Z,2.72
2023-03-26T16:41:51.284Z,10.57
2023-03-26T16:44:21.091Z,4.38
2023-03-26T16:47:13.935Z,7.90
2023-03-26T16:50:29.252Z,9.07
2023-03-26T16:53:33.306Z,10.05
2023-03-26T16:56:22.271Z,2.70
2023-03-26T16:58:56.049Z,7.90
2023-03-26T17:01:42.862Z,6.97
2023-03-26T17:04:24.638Z,5.38
2023-03-26T17:07:13.644Z,3.67
2023-03-26T17:10:12.371Z,10.37
2023-03-26T17:13:02.230Z,9.57
2023-03-26T17:15:34.621Z,4.45
2023-03-26T17:18:38.331Z,9.60
2023-03-26T17:21:19.720Z,3.72
2023-03-26T17:24:17.430Z,3.00
2023-03-26T17:27:16.328Z,4.68
2023-03-26T17:30:00.550Z,8.55
2023-03-26T17:33:05.095Z,6.47
2023-03-26T17:35:51.615Z,6.55
2023-03-26T17:38:17.977Z,6.07
2023-03-26T17:40:57.605Z,5.20
2023-03-26T17:43:38.010Z,4.75
2023-03-26T17:46:30.387Z,6.30
2023-03-26T17:49:01.378Z,4.68
2023-03-26T17:51:47.741Z,5.87
2023-03-26T17:54:28.840Z,11.05
2023-03-26T17:57:00.626Z,8.18
2023-03-26T17:59:30.494Z,5.10
2023-03-26T18:02:03.841Z,7.30
2023-03-26T18:04:36.381Z,5.33
2023-03-26T18:07:11.952Z,5.40
2023-03-26T18:09:50.738Z,8.00
2023-03-26T18:12:50.853Z,2.38
2023-03-26T18:15:49.715Z,4.88
2023-03-26T18:18:25.624Z,6.53
2023-03-26T18:20:54.545Z,4.20
2023-03-26T18:23:36.801Z,7.05
2023-03-26T18:26:18.358Z,6.45
2023-03-26T18:29:20.442Z,4.03
2023-03-26T18:31:50.214Z,8.20
2023-03-26T18:34:21.071Z,7.18
2023-03-26T18:37:01.040Z,4.80
2023-03-26T18:39:28.538Z,6.95
2023-03-26T18:41:55.464Z,3.92
2023-03-26T18:44:22.775Z,5.87
2023-03-26T18:46:54.706Z,3.92
2023-03-26T18:49:24.050Z,6.30
2023-03-26T18:51:57.218Z,9.20
2023-03-26T18:54:29.576Z,4.95
2023-03-26T18:56:59.014Z,6.10
2023-03-26T18:59:32.029Z,4.05
2023-03-26T19:02:05.134Z,4.07
2023-03-26T19:04:37.147Z,10.82
2023-03-26T19:07:08.694Z,4.80
2023-03-26T19:09:35.708Z,7.93
2023-03-26T19:12:16.806Z,5.38
2023-03-26T19:14:58.006Z,7.55
2023-03-26T19:17:30.404Z,6.88
2023-03-26T19:19:57.651Z,5.80
2023-03-26T19:22:25.042Z,8.57
2023-03-26T19:24:57.788Z,6.65
2023-03-26T19:27:24.786Z,10.05
2023-03-26T19:29:51.254Z,8.77
2023-03-26T19:32:21.265Z,6.57
2023-03-26T19:34:48.442Z,7.33
2023-03-26T19:37:24.929Z,12.63
2023-03-26T19:39:53.686Z,7.38
2023-03-26T19:42:26.564Z,8.43
2023-03-26T19:44:54.138Z,6.82
2023-03-26T19:47:31.947Z,2.70
2023-03-26T19:50:26.267Z,14.82
2023-03-26T19:53:16.716Z,7.63
2023-03-26T19:55:53.894Z,10.80
2023-03-26T19:58:20.435Z,9.70
2023-03-26T20:00:47.005Z,7.47
2023-03-26T20:03:16.572Z,7.32
2023-03-26T20:05:43.335Z,10.13
2023-03-26T20:08:19.646Z,8.93
2023-03-26T20:10:46.193Z,3.83
2023-03-26T20:13:17.210Z,5.97
2023-03-26T20:16:05.573Z,6.93
2023-03-26T20:18:33.846Z,4.53
2023-03-26T20:21:00.555Z,9.35
2023-03-26T20:23:28.782Z,1.75
2023-03-26T20:25:55.507Z,5.90
2023-03-26T20:28:22.268Z,6.97
2023-03-26T20:30:50.027Z,7.05
2023-03-26T20:33:25.338Z,4.15
2023-03-26T20:35:53.315Z,4.30
2023-03-26T20:38:24.006Z,6.57
2023-03-26T20:40:56.262Z,5.13
2023-03-26T20:43:25.066Z,5.10
2023-03-26T20:45:52.003Z,4.25
2023-03-26T20:48:18.382Z,4.13
2023-03-26T20:50:50.695Z,4.27
2023-03-26T20:53:18.826Z,2.05
2023-03-26T20:55:46.175Z,4.20
2023-03-26T20:58:18.145Z,6.82
2023-03-26T21:01:00.386Z,5.07
2023-03-26T21:03:27.592Z,4.93
2023-03-26T21:05:54.075Z,4.70
2023-03-26T21:08:21.714Z,8.15
2023-03-26T21:10:48.509Z,2.22
2023-03-26T21:13:38.304Z,5.72
2023-03-26T21:16:05.241Z,5.77
2023-03-26T21:18:32.289Z,4.30
2023-03-26T21:21:46.036Z,10.13
2023-03-26T21:24:45.035Z,2.13
2023-03-26T21:27:28.486Z,5.38
2023-03-26T21:29:56.095Z,2.70
2023-03-26T21:32:23.183Z,1.80
2023-03-26T21:34:58.665Z,5.78
2023-03-26T21:37:26.985Z,4.80
2023-03-26T21:39:53.753Z,2.17
2023-03-26T21:42:20.496Z,4.20
2023-03-26T21:44:47.669Z,5.07
2023-03-26T21:47:14.823Z,6.60
2023-03-26T21:49:41.611Z,4.00
2023-03-26T21:52:14.633Z,8.25
2023-03-26T21:54:43.144Z,3.30
2023-03-26T21:57:22.286Z,2.70
2023-03-26T22:00:14.288Z,3.28
2023-03-26T22:06:06.242Z,7.75
2023-03-26T22:08:38.795Z,6.93
2023-03-26T22:11:07.144Z,5.82
2023-03-26T22:13:35.650Z,3.40
2023-03-26T22:16:02.518Z,1.90
2023-03-26T22:18:30.110Z,2.90
2023-03-26T22:20:59.016Z,2.87
2023-03-26T22:23:26.752Z,4.18
2023-03-26T22:25:53.236Z,2.00
2023-03-26T22:28:19.808Z,7.38
2023-03-26T22:30:46.573Z,7.15
2023-03-26T22:33:14.323Z,4.60
2023-03-26T22:35:44.547Z,5.78
2023-03-26T22:38:11.734Z,5.28
2023-03-26T22:40:38.691Z,4.88
2023-03-26T22:43:05.277Z,7.90
2023-03-26T22:45:32.537Z,6.13
2023-03-26T22:48:03.969Z,3.03
2023-03-26T22:50:31.063Z,8.40
2023-03-26T22:52:57.491Z,4.53
2023-03-26T22:55:29.328Z,2.10
2023-03-26T22:57:56.899Z,4.20
2023-03-26T23:00:23.509Z,5.55
2023-03-26T23:02:50.091Z,4.80
2023-03-26T23:05:20.287Z,2.55
2023-03-26T23:07:47.319Z,2.92
2023-03-26T23:10:14.071Z,2.47
2023-03-26T23:12:41.508Z,5.90
2023-03-26T23:15:09.748Z,3.95
2023-03-26T23:17:37.582Z,10.98
2023-03-26T23:20:12.448Z,4.47
2023-03-26T23:22:38.921Z,3.60
2023-03-26T23:25:06.119Z,3.88
2023-03-26T23:27:33.093Z,5.40
2023-03-26T23:30:01.181Z,2.60
2023-03-26T23:32:28.250Z,2.10
2023-03-26T23:34:56.059Z,4.93
2023-03-26T23:37:23.533Z,1.95
2023-03-26T23:39:51.103Z,3.00
2023-03-26T23:42:18.158Z,6.95
2023-03-26T23:44:56.885Z,2.35
2023-03-26T23:47:23.874Z,3.77
2023-03-26T23:49:50.431Z,1.38
2023-03-26T23:52:16.926Z,0.52
2023-03-26T23:54:44.581Z,3.20
2023-03-26T23:57:11.483Z,5.43
2023-03-26T23:59:38.270Z,2.67
